sensor_id;sensor_type;location;lat;lon;timestamp;P1;durP1;ratioP1;P2;durP2;ratioP2
17528;SDS011;8882;53.192;8.184;2023-07-31T04:30:39;2.90;;;2.70;;
17528;SDS011;8882;53.192;8.184;2023-07-31T04:33:04;3.23;;;2.93;;
17528;SDS011;8882;53.192;8.184;2023-07-31T04:35:30;2.93;;;2.73;;
17528;SDS011;8882;53.192;8.184;2023-07-31T04:37:55;2.97;;;2.67;;
17528;SDS011;8882;53.192;8.184;2023-07-31T04:40:21;2.80;;;2.53;;
17528;SDS011;8882;53.192;8.184;2023-07-31T04:42:46;2.90;;;2.60;;
17528;SDS011;8882;53.192;8.184;2023-07-31T04:45:12;3.23;;;2.87;;
17528;SDS011;8882;53.192;8.184;2023-07-31T04:47:37;2.80;;;2.60;;
17528;SDS011;8882;53.192;8.184;2023-07-31T04:50:03;2.60;;;2.40;;
17528;SDS011;8882;53.192;8.184;2023-07-31T04:52:29;2.90;;;2.53;;
17528;SDS011;8882;53.192;8.184;2023-07-31T04:54:54;2.40;;;2.20;;
17528;SDS011;8882;53.192;8.184;2023-07-31T04:57:20;2.50;;;2.30;;
17528;SDS011;8882;53.192;8.184;2023-07-31T04:59:45;2.50;;;2.30;;
17528;SDS011;8882;53.192;8.184;2023-07-31T05:02:11;2.70;;;2.23;;
17528;SDS011;8882;53.192;8.184;2023-07-31T05:04:38;2.10;;;2.00;;
17528;SDS011;8882;53.192;8.184;2023-07-31T05:07:03;2.40;;;2.20;;
17528;SDS011;8882;53.192;8.184;2023-07-31T05:09:29;3.03;;;2.13;;
17528;SDS011;8882;53.192;8.184;2023-07-31T05:11:55;1.97;;;1.87;;
17528;SDS011;8882;53.192;8.184;2023-07-31T05:14:20;1.67;;;1.57;;
17528;SDS011;8882;53.192;8.184;2023-07-31T05:16:45;2.33;;;1.70;;
17528;SDS011;8882;53.192;8.184;2023-07-31T05:19:11;1.60;;;1.50;;
17528;SDS011;8882;53.192;8.184;2023-07-31T05:21:37;1.83;;;1.70;;
17528;SDS011;8882;53.192;8.184;2023-07-31T05:24:02;3.10;;;1.50;;
17528;SDS011;8882;53.192;8.184;2023-07-31T05:26:28;1.47;;;1.37;;
17528;SDS011;8882;53.192;8.184;2023-07-31T05:28:53;1.40;;;1.30;;
17528;SDS011;8882;53.192;8.184;2023-07-31T05:31:19;1.00;;;1.00;;
17528;SDS011;8882;53.192;8.184;2023-07-31T05:33:45;1.33;;;1.23;;
17528;SDS011;8882;53.192;8.184;2023-07-31T05:36:11;1.93;;;1.30;;
17528;SDS011;8882;53.192;8.184;2023-07-31T05:38:37;1.30;;;1.20;;
17528;SDS011;8882;53.192;8.184;2023-07-31T05:41:02;1.50;;;1.40;;
17528;SDS011;8882;53.192;8.184;2023-07-31T05:43:28;1.53;;;1.30;;
17528;SDS011;8882;53.192;8.184;2023-07-31T05:45:53;1.13;;;1.10;;
17528;SDS011;8882;53.192;8.184;2023-07-31T05:48:19;1.30;;;1.20;;
17528;SDS011;8882;53.192;8.184;2023-07-31T05:50:44;1.00;;;1.00;;
17528;SDS011;8882;53.192;8.184;2023-07-31T05:53:09;1.33;;;1.23;;
17528;SDS011;8882;53.192;8.184;2023-07-31T05:55:35;1.83;;;1.10;;
17528;SDS011;8882;53.192;8.184;2023-07-31T05:58:01;1.90;;;1.60;;
17528;SDS011;8882;53.192;8.184;2023-07-31T06:00:26;1.40;;;1.30;;
17528;SDS011;8882;53.192;8.184;2023-07-31T06:02:52;1.83;;;1.30;;
17528;SDS011;8882;53.192;8.184;2023-07-31T06:05:18;1.53;;;1.40;;
17528;SDS011;8882;53.192;8.184;2023-07-31T06:07:43;1.53;;;1.20;;
17528;SDS011;8882;53.192;8.184;2023-07-31T06:10:09;1.23;;;1.13;;
17528;SDS011;8882;53.192;8.184;2023-07-31T06:12:35;1.20;;;1.10;;
17528;SDS011;8882;53.192;8.184;2023-07-31T06:15:01;1.07;;;1.00;;
17528;SDS011;8882;53.192;8.184;2023-07-31T06:17:28;1.07;;;1.07;;
17528;SDS011;8882;53.192;8.184;2023-07-31T06:19:54;1.67;;;1.00;;
17528;SDS011;8882;53.192;8.184;2023-07-31T06:22:21;1.10;;;0.90;;
17528;SDS011;8882;53.192;8.184;2023-07-31T06:24:46;1.00;;;1.00;;
17528;SDS011;8882;53.192;8.184;2023-07-31T06:27:12;0.90;;;0.90;;
17528;SDS011;8882;53.192;8.184;2023-07-31T06:29:37;1.03;;;1.03;;
17528;SDS011;8882;53.192;8.184;2023-07-31T06:32:03;0.70;;;0.70;;
17528;SDS011;8882;53.192;8.184;2023-07-31T06:34:29;1.97;;;0.77;;
17528;SDS011;8882;53.192;8.184;2023-07-31T06:36:55;0.80;;;0.80;;
17528;SDS011;8882;53.192;8.184;2023-07-31T06:39:21;0.70;;;0.70;;
17528;SDS011;8882;53.192;8.184;2023-07-31T06:41:46;0.70;;;0.70;;
17528;SDS011;8882;53.192;8.184;2023-07-31T06:44:12;0.60;;;0.60;;
17528;SDS011;8882;53.192;8.184;2023-07-31T06:46:37;0.70;;;0.70;;
17528;SDS011;8882;53.192;8.184;2023-07-31T06:49:03;0.77;;;0.70;;
17528;SDS011;8882;53.192;8.184;2023-07-31T06:51:30;0.63;;;0.63;;
17528;SDS011;8882;53.192;8.184;2023-07-31T06:53:56;0.70;;;0.50;;
17528;SDS011;8882;53.192;8.184;2023-07-31T06:56:22;0.50;;;0.50;;
17528;SDS011;8882;53.192;8.184;2023-07-31T06:58:48;0.53;;;0.50;;
17528;SDS011;8882;53.192;8.184;2023-07-31T07:01:13;0.80;;;0.80;;
17528;SDS011;8882;53.192;8.184;2023-07-31T07:03:39;0.60;;;0.60;;
17528;SDS011;8882;53.192;8.184;2023-07-31T07:06:04;0.80;;;0.80;;
17528;SDS011;8882;53.192;8.184;2023-07-31T07:08:30;0.67;;;0.67;;
17528;SDS011;8882;53.192;8.184;2023-07-31T07:10:55;0.63;;;0.63;;
17528;SDS011;8882;53.192;8.184;2023-07-31T07:13:21;0.63;;;0.63;;
17528;SDS011;8882;53.192;8.184;2023-07-31T07:15:47;0.70;;;0.70;;
17528;SDS011;8882;53.192;8.184;2023-07-31T07:18:14;0.83;;;0.83;;
17528;SDS011;8882;53.192;8.184;2023-07-31T07:20:39;0.60;;;0.60;;
17528;SDS011;8882;53.192;8.184;2023-07-31T07:23:05;2.97;;;0.90;;
17528;SDS011;8882;53.192;8.184;2023-07-31T07:25:31;0.80;;;0.70;;
17528;SDS011;8882;53.192;8.184;2023-07-31T07:27:56;0.67;;;0.67;;
17528;SDS011;8882;53.192;8.184;2023-07-31T07:30:22;1.10;;;0.90;;
17528;SDS011;8882;53.192;8.184;2023-07-31T07:32:50;1.00;;;1.00;;
17528;SDS011;8882;53.192;8.184;2023-07-31T07:35:15;0.80;;;0.80;;
17528;SDS011;8882;53.192;8.184;2023-07-31T07:37:41;1.00;;;1.00;;
17528;SDS011;8882;53.192;8.184;2023-07-31T07:40:06;1.43;;;1.30;;
17528;SDS011;8882;53.192;8.184;2023-07-31T07:42:32;1.17;;;1.10;;
17528;SDS011;8882;53.192;8.184;2023-07-31T07:44:58;1.30;;;1.20;;
17528;SDS011;8882;53.192;8.184;2023-07-31T07:47:23;1.17;;;1.00;;
17528;SDS011;8882;53.192;8.184;2023-07-31T07:49:49;2.40;;;1.73;;
17528;SDS011;8882;53.192;8.184;2023-07-31T07:52:14;3.83;;;2.20;;
17528;SDS011;8882;53.192;8.184;2023-07-31T07:54:40;10.03;;;2.90;;
17528;SDS011;8882;53.192;8.184;2023-07-31T07:57:05;5.60;;;2.90;;
17528;SDS011;8882;53.192;8.184;2023-07-31T07:59:31;9.00;;;4.87;;
17528;SDS011;8882;53.192;8.184;2023-07-31T08:01:56;8.53;;;4.83;;
17528;SDS011;8882;53.192;8.184;2023-07-31T08:04:22;19.23;;;5.80;;
17528;SDS011;8882;53.192;8.184;2023-07-31T08:06:48;15.57;;;5.67;;
17528;SDS011;8882;53.192;8.184;2023-07-31T08:09:13;12.47;;;6.00;;
17528;SDS011;8882;53.192;8.184;2023-07-31T08:11:39;17.60;;;7.10;;
17528;SDS011;8882;53.192;8.184;2023-07-31T08:14:04;17.73;;;7.03;;
17528;SDS011;8882;53.192;8.184;2023-07-31T08:16:30;12.97;;;6.50;;
17528;SDS011;8882;53.192;8.184;2023-07-31T08:18:55;15.93;;;7.53;;
17528;SDS011;8882;53.192;8.184;2023-07-31T08:21:21;16.97;;;8.27;;
17528;SDS011;8882;53.192;8.184;2023-07-31T08:23:47;18.33;;;8.00;;
17528;SDS011;8882;53.192;8.184;2023-07-31T08:26:20;22.77;;;10.27;;
17528;SDS011;8882;53.192;8.184;2023-07-31T08:28:46;19.87;;;7.90;;
17528;SDS011;8882;53.192;8.184;2023-07-31T08:31:12;20.40;;;8.77;;
17528;SDS011;8882;53.192;8.184;2023-07-31T08:33:38;21.23;;;7.67;;
17528;SDS011;8882;53.192;8.184;2023-07-31T08:36:04;17.57;;;8.20;;
17528;SDS011;8882;53.192;8.184;2023-07-31T08:38:30;24.20;;;7.80;;
17528;SDS011;8882;53.192;8.184;2023-07-31T08:40:59;18.37;;;8.17;;
17528;SDS011;8882;53.192;8.184;2023-07-31T08:43:25;17.23;;;8.17;;
17528;SDS011;8882;53.192;8.184;2023-07-31T08:45:51;25.77;;;7.93;;
17528;SDS011;8882;53.192;8.184;2023-07-31T08:48:17;16.83;;;7.57;;
17528;SDS011;8882;53.192;8.184;2023-07-31T08:50:44;17.83;;;7.83;;
17528;SDS011;8882;53.192;8.184;2023-07-31T08:53:10;17.93;;;7.30;;
17528;SDS011;8882;53.192;8.184;2023-07-31T08:55:36;19.23;;;7.33;;
17528;SDS011;8882;53.192;8.184;2023-07-31T08:58:04;15.60;;;7.67;;
17528;SDS011;8882;53.192;8.184;2023-07-31T09:00:30;18.00;;;7.47;;
17528;SDS011;8882;53.192;8.184;2023-07-31T09:02:59;12.50;;;6.60;;
17528;SDS011;8882;53.192;8.184;2023-07-31T09:05:28;11.07;;;5.97;;
17528;SDS011;8882;53.192;8.184;2023-07-31T09:07:55;9.73;;;6.07;;
17528;SDS011;8882;53.192;8.184;2023-07-31T09:10:21;10.50;;;5.70;;
17528;SDS011;8882;53.192;8.184;2023-07-31T09:12:48;14.27;;;5.70;;
17528;SDS011;8882;53.192;8.184;2023-07-31T09:15:15;9.77;;;5.57;;
17528;SDS011;8882;53.192;8.184;2023-07-31T09:17:41;9.70;;;6.23;;
17528;SDS011;8882;53.192;8.184;2023-07-31T09:22:39;20.03;;;5.93;;
17528;SDS011;8882;53.192;8.184;2023-07-31T09:25:15;10.87;;;5.70;;
17528;SDS011;8882;53.192;8.184;2023-07-31T09:27:51;12.30;;;6.27;;
17528;SDS011;8882;53.192;8.184;2023-07-31T09:30:24;8.27;;;5.50;;
17528;SDS011;8882;53.192;8.184;2023-07-31T09:32:51;9.83;;;5.97;;
17528;SDS011;8882;53.192;8.184;2023-07-31T09:35:28;10.23;;;5.90;;
17528;SDS011;8882;53.192;8.184;2023-07-31T09:37:58;15.13;;;6.33;;
17528;SDS011;8882;53.192;8.184;2023-07-31T09:40:33;11.83;;;5.37;;
17528;SDS011;8882;53.192;8.184;2023-07-31T09:43:00;10.40;;;5.20;;
17528;SDS011;8882;53.192;8.184;2023-07-31T09:45:30;9.67;;;4.80;;
17528;SDS011;8882;53.192;8.184;2023-07-31T09:48:01;7.43;;;5.27;;
17528;SDS011;8882;53.192;8.184;2023-07-31T09:50:27;8.67;;;5.20;;
17528;SDS011;8882;53.192;8.184;2023-07-31T09:52:54;8.93;;;5.57;;
17528;SDS011;8882;53.192;8.184;2023-07-31T09:55:19;7.53;;;4.83;;
17528;SDS011;8882;53.192;8.184;2023-07-31T09:57:46;12.90;;;5.30;;
17528;SDS011;8882;53.192;8.184;2023-07-31T10:00:14;8.37;;;5.70;;
17528;SDS011;8882;53.192;8.184;2023-07-31T10:02:41;5.67;;;4.83;;
17528;SDS011;8882;53.192;8.184;2023-07-31T10:05:09;6.67;;;4.83;;
17528;SDS011;8882;53.192;8.184;2023-07-31T10:07:38;8.87;;;5.00;;
17528;SDS011;8882;53.192;8.184;2023-07-31T10:10:06;6.93;;;4.67;;
17528;SDS011;8882;53.192;8.184;2023-07-31T10:12:33;5.53;;;4.17;;
17528;SDS011;8882;53.192;8.184;2023-07-31T10:14:59;7.30;;;4.10;;
17528;SDS011;8882;53.192;8.184;2023-07-31T10:17:26;7.23;;;4.27;;
17528;SDS011;8882;53.192;8.184;2023-07-31T10:19:53;6.13;;;3.73;;
17528;SDS011;8882;53.192;8.184;2023-07-31T10:22:21;7.40;;;4.57;;
17528;SDS011;8882;53.192;8.184;2023-07-31T10:24:47;5.90;;;4.30;;
17528;SDS011;8882;53.192;8.184;2023-07-31T10:27:15;5.73;;;3.80;;
17528;SDS011;8882;53.192;8.184;2023-07-31T10:29:41;4.23;;;3.57;;
17528;SDS011;8882;53.192;8.184;2023-07-31T10:32:09;5.87;;;3.87;;
17528;SDS011;8882;53.192;8.184;2023-07-31T10:34:36;6.30;;;3.80;;
17528;SDS011;8882;53.192;8.184;2023-07-31T10:39:54;4.57;;;3.60;;
17528;SDS011;8882;53.192;8.184;2023-07-31T10:42:33;3.10;;;2.80;;
17528;SDS011;8882;53.192;8.184;2023-07-31T10:45:02;3.20;;;2.90;;
17528;SDS011;8882;53.192;8.184;2023-07-31T10:47:29;6.53;;;3.40;;
17528;SDS011;8882;53.192;8.184;2023-07-31T10:52:50;4.00;;;3.20;;
17528;SDS011;8882;53.192;8.184;2023-07-31T10:57:53;3.53;;;2.70;;
17528;SDS011;8882;53.192;8.184;2023-07-31T11:03:03;3.13;;;2.57;;
17528;SDS011;8882;53.192;8.184;2023-07-31T11:13:29;3.57;;;2.03;;
17528;SDS011;8882;53.192;8.184;2023-07-31T11:15:59;1.97;;;1.80;;
17528;SDS011;8882;53.192;8.184;2023-07-31T11:18:28;1.93;;;1.80;;
17528;SDS011;8882;53.192;8.184;2023-07-31T11:20:54;2.23;;;1.70;;
17528;SDS011;8882;53.192;8.184;2023-07-31T11:23:19;2.00;;;1.80;;
17528;SDS011;8882;53.192;8.184;2023-07-31T11:25:46;1.80;;;1.70;;
17528;SDS011;8882;53.192;8.184;2023-07-31T11:28:13;2.70;;;1.50;;
17528;SDS011;8882;53.192;8.184;2023-07-31T11:30:39;1.50;;;1.40;;
17528;SDS011;8882;53.192;8.184;2023-07-31T11:33:07;1.50;;;1.30;;
17528;SDS011;8882;53.192;8.184;2023-07-31T11:35:34;2.23;;;1.10;;
17528;SDS011;8882;53.192;8.184;2023-07-31T11:38:01;1.07;;;1.00;;
17528;SDS011;8882;53.192;8.184;2023-07-31T11:40:27;1.30;;;0.93;;
17528;SDS011;8882;53.192;8.184;2023-07-31T11:42:57;1.17;;;0.90;;
17528;SDS011;8882;53.192;8.184;2023-07-31T11:45:24;1.00;;;1.00;;
17528;SDS011;8882;53.192;8.184;2023-07-31T11:47:51;1.30;;;1.10;;
17528;SDS011;8882;53.192;8.184;2023-07-31T11:50:18;1.00;;;1.00;;
17528;SDS011;8882;53.192;8.184;2023-07-31T11:52:44;1.90;;;1.23;;
17528;SDS011;8882;53.192;8.184;2023-07-31T11:55:14;1.10;;;1.10;;
17528;SDS011;8882;53.192;8.184;2023-07-31T11:57:41;3.43;;;1.40;;
17528;SDS011;8882;53.192;8.184;2023-07-31T12:00:09;1.20;;;1.20;;
17528;SDS011;8882;53.192;8.184;2023-07-31T12:02:36;2.17;;;1.27;;
17528;SDS011;8882;53.192;8.184;2023-07-31T12:05:04;1.30;;;1.20;;
17528;SDS011;8882;53.192;8.184;2023-07-31T12:07:42;1.33;;;1.23;;
17528;SDS011;8882;53.192;8.184;2023-07-31T12:10:09;4.83;;;1.40;;
17528;SDS011;8882;53.192;8.184;2023-07-31T12:12:35;1.30;;;1.20;;
17528;SDS011;8882;53.192;8.184;2023-07-31T12:15:00;1.57;;;1.47;;
17528;SDS011;8882;53.192;8.184;2023-07-31T12:17:25;1.70;;;1.60;;
17528;SDS011;8882;53.192;8.184;2023-07-31T12:19:51;1.40;;;1.30;;
17528;SDS011;8882;53.192;8.184;2023-07-31T12:22:17;2.50;;;1.10;;
17528;SDS011;8882;53.192;8.184;2023-07-31T12:24:42;1.40;;;1.30;;
17528;SDS011;8882;53.192;8.184;2023-07-31T12:27:12;2.27;;;1.30;;
17528;SDS011;8882;53.192;8.184;2023-07-31T12:29:39;1.80;;;1.70;;
17528;SDS011;8882;53.192;8.184;2023-07-31T12:32:19;1.40;;;1.30;;
17528;SDS011;8882;53.192;8.184;2023-07-31T12:34:49;1.73;;;1.63;;
17528;SDS011;8882;53.192;8.184;2023-07-31T12:37:15;1.77;;;1.40;;
17528;SDS011;8882;53.192;8.184;2023-07-31T12:39:41;1.53;;;1.43;;
17528;SDS011;8882;53.192;8.184;2023-07-31T12:42:07;2.97;;;1.70;;
17528;SDS011;8882;53.192;8.184;2023-07-31T12:44:32;1.83;;;1.73;;
17528;SDS011;8882;53.192;8.184;2023-07-31T12:46:58;1.53;;;1.43;;
17528;SDS011;8882;53.192;8.184;2023-07-31T12:49:24;1.80;;;1.70;;
17528;SDS011;8882;53.192;8.184;2023-07-31T12:51:49;1.83;;;1.73;;
17528;SDS011;8882;53.192;8.184;2023-07-31T12:54:15;1.60;;;1.50;;
17528;SDS011;8882;53.192;8.184;2023-07-31T12:56:40;2.13;;;1.67;;
17528;SDS011;8882;53.192;8.184;2023-07-31T12:59:06;2.00;;;1.90;;
17528;SDS011;8882;53.192;8.184;2023-07-31T13:01:31;2.00;;;1.90;;
17528;SDS011;8882;53.192;8.184;2023-07-31T13:03:57;2.83;;;2.03;;
17528;SDS011;8882;53.192;8.184;2023-07-31T13:06:23;4.33;;;2.00;;
17528;SDS011;8882;53.192;8.184;2023-07-31T13:08:49;2.33;;;2.13;;
17528;SDS011;8882;53.192;8.184;2023-07-31T13:11:15;2.20;;;2.00;;
17528;SDS011;8882;53.192;8.184;2023-07-31T13:13:40;2.20;;;2.00;;
17528;SDS011;8882;53.192;8.184;2023-07-31T13:16:06;2.80;;;2.60;;
17528;SDS011;8882;53.192;8.184;2023-07-31T13:18:31;2.07;;;1.80;;
17528;SDS011;8882;53.192;8.184;2023-07-31T13:20:57;2.27;;;2.07;;
17528;SDS011;8882;53.192;8.184;2023-07-31T13:23:22;2.37;;;2.17;;
17528;SDS011;8882;53.192;8.184;2023-07-31T13:25:48;2.30;;;2.10;;
17528;SDS011;8882;53.192;8.184;2023-07-31T13:28:13;2.47;;;2.27;;
17528;SDS011;8882;53.192;8.184;2023-07-31T13:30:39;2.07;;;1.87;;
17528;SDS011;8882;53.192;8.184;2023-07-31T13:33:05;1.93;;;1.83;;
17528;SDS011;8882;53.192;8.184;2023-07-31T13:35:30;2.33;;;1.80;;
17528;SDS011;8882;53.192;8.184;2023-07-31T13:37:56;2.20;;;2.00;;
17528;SDS011;8882;53.192;8.184;2023-07-31T13:40:22;2.00;;;1.77;;
17528;SDS011;8882;53.192;8.184;2023-07-31T13:42:48;1.90;;;1.80;;
17528;SDS011;8882;53.192;8.184;2023-07-31T13:45:13;2.10;;;1.90;;
17528;SDS011;8882;53.192;8.184;2023-07-31T13:47:39;1.70;;;1.60;;
17528;SDS011;8882;53.192;8.184;2023-07-31T13:50:05;2.53;;;1.60;;
17528;SDS011;8882;53.192;8.184;2023-07-31T13:52:30;1.77;;;1.67;;
17528;SDS011;8882;53.192;8.184;2023-07-31T13:54:56;2.27;;;1.60;;
17528;SDS011;8882;53.192;8.184;2023-07-31T13:57:21;2.13;;;1.93;;
17528;SDS011;8882;53.192;8.184;2023-07-31T13:59:48;2.40;;;2.13;;
17528;SDS011;8882;53.192;8.184;2023-07-31T14:02:13;2.30;;;2.10;;
17528;SDS011;8882;53.192;8.184;2023-07-31T14:04:39;2.30;;;2.10;;
17528;SDS011;8882;53.192;8.184;2023-07-31T14:07:05;3.60;;;1.87;;
17528;SDS011;8882;53.192;8.184;2023-07-31T14:09:31;2.03;;;1.93;;
17528;SDS011;8882;53.192;8.184;2023-07-31T14:11:56;2.87;;;1.70;;
17528;SDS011;8882;53.192;8.184;2023-07-31T14:14:22;1.90;;;1.70;;
17528;SDS011;8882;53.192;8.184;2023-07-31T14:16:47;1.70;;;1.60;;
17528;SDS011;8882;53.192;8.184;2023-07-31T14:19:13;1.40;;;1.30;;
17528;SDS011;8882;53.192;8.184;2023-07-31T14:21:38;1.70;;;1.10;;
17528;SDS011;8882;53.192;8.184;2023-07-31T14:24:04;1.13;;;0.90;;
17528;SDS011;8882;53.192;8.184;2023-07-31T14:26:30;0.90;;;0.90;;
17528;SDS011;8882;53.192;8.184;2023-07-31T14:28:55;0.80;;;0.80;;
17528;SDS011;8882;53.192;8.184;2023-07-31T14:31:20;0.93;;;0.80;;
17528;SDS011;8882;53.192;8.184;2023-07-31T14:33:46;0.80;;;0.80;;
17528;SDS011;8882;53.192;8.184;2023-07-31T14:36:12;0.83;;;0.80;;
17528;SDS011;8882;53.192;8.184;2023-07-31T14:38:37;0.90;;;0.90;;
17528;SDS011;8882;53.192;8.184;2023-07-31T14:41:03;1.07;;;0.90;;
17528;SDS011;8882;53.192;8.184;2023-07-31T14:43:28;2.07;;;0.90;;
17528;SDS011;8882;53.192;8.184;2023-07-31T14:45:54;1.03;;;1.00;;
17528;SDS011;8882;53.192;8.184;2023-07-31T14:48:22;1.00;;;1.00;;
17528;SDS011;8882;53.192;8.184;2023-07-31T14:50:48;2.70;;;1.10;;
17528;SDS011;8882;53.192;8.184;2023-07-31T14:53:13;2.83;;;1.30;;
17528;SDS011;8882;53.192;8.184;2023-07-31T14:55:39;2.57;;;1.27;;
17528;SDS011;8882;53.192;8.184;2023-07-31T14:58:04;1.70;;;1.10;;
17528;SDS011;8882;53.192;8.184;2023-07-31T15:00:30;1.27;;;1.17;;
17528;SDS011;8882;53.192;8.184;2023-07-31T15:02:55;3.53;;;1.30;;
17528;SDS011;8882;53.192;8.184;2023-07-31T15:05:21;1.20;;;1.00;;
17528;SDS011;8882;53.192;8.184;2023-07-31T15:07:46;1.23;;;0.90;;
17528;SDS011;8882;53.192;8.184;2023-07-31T15:10:12;1.30;;;1.20;;
17528;SDS011;8882;53.192;8.184;2023-07-31T15:12:39;1.30;;;1.20;;
17528;SDS011;8882;53.192;8.184;2023-07-31T15:15:05;1.00;;;1.00;;
17528;SDS011;8882;53.192;8.184;2023-07-31T15:17:31;1.70;;;1.30;;
17528;SDS011;8882;53.192;8.184;2023-07-31T15:19:57;1.57;;;1.40;;
17528;SDS011;8882;53.192;8.184;2023-07-31T15:22:23;2.13;;;1.50;;
17528;SDS011;8882;53.192;8.184;2023-07-31T15:24:49;2.03;;;1.20;;
17528;SDS011;8882;53.192;8.184;2023-07-31T15:27:15;1.50;;;1.40;;
17528;SDS011;8882;53.192;8.184;2023-07-31T15:29:41;3.13;;;1.70;;
17528;SDS011;8882;53.192;8.184;2023-07-31T15:32:06;4.30;;;1.57;;
17528;SDS011;8882;53.192;8.184;2023-07-31T15:34:32;3.07;;;1.70;;
17528;SDS011;8882;53.192;8.184;2023-07-31T15:36:57;3.00;;;1.70;;
17528;SDS011;8882;53.192;8.184;2023-07-31T15:39:23;2.43;;;1.40;;
17528;SDS011;8882;53.192;8.184;2023-07-31T15:41:49;2.23;;;1.40;;
17528;SDS011;8882;53.192;8.184;2023-07-31T15:44:14;2.07;;;1.57;;
17528;SDS011;8882;53.192;8.184;2023-07-31T15:46:40;2.77;;;1.70;;
17528;SDS011;8882;53.192;8.184;2023-07-31T15:49:05;1.63;;;1.53;;
17528;SDS011;8882;53.192;8.184;2023-07-31T15:51:31;2.73;;;1.73;;
17528;SDS011;8882;53.192;8.184;2023-07-31T15:53:57;4.23;;;2.47;;
17528;SDS011;8882;53.192;8.184;2023-07-31T15:56:23;3.57;;;2.57;;
17528;SDS011;8882;53.192;8.184;2023-07-31T15:58:48;4.50;;;3.30;;
17528;SDS011;8882;53.192;8.184;2023-07-31T16:01:15;3.53;;;2.93;;
17528;SDS011;8882;53.192;8.184;2023-07-31T16:03:41;4.17;;;3.27;;
17528;SDS011;8882;53.192;8.184;2023-07-31T16:06:06;4.93;;;3.23;;
17528;SDS011;8882;53.192;8.184;2023-07-31T16:08:32;6.57;;;3.23;;
17528;SDS011;8882;53.192;8.184;2023-07-31T16:10:57;7.20;;;3.43;;
17528;SDS011;8882;53.192;8.184;2023-07-31T16:13:23;5.77;;;3.33;;
17528;SDS011;8882;53.192;8.184;2023-07-31T16:15:48;6.23;;;3.57;;
17528;SDS011;8882;53.192;8.184;2023-07-31T16:18:14;4.13;;;3.33;;
17528;SDS011;8882;53.192;8.184;2023-07-31T16:20:39;4.33;;;3.33;;
17528;SDS011;8882;53.192;8.184;2023-07-31T16:23:05;8.17;;;3.80;;
17528;SDS011;8882;53.192;8.184;2023-07-31T16:25:31;5.13;;;3.83;;
17528;SDS011;8882;53.192;8.184;2023-07-31T16:27:57;6.93;;;3.57;;
17528;SDS011;8882;53.192;8.184;2023-07-31T16:30:23;5.67;;;3.60;;
17528;SDS011;8882;53.192;8.184;2023-07-31T16:32:48;5.57;;;3.53;;
17528;SDS011;8882;53.192;8.184;2023-07-31T16:35:14;4.57;;;3.70;;
17528;SDS011;8882;53.192;8.184;2023-07-31T16:37:40;4.50;;;3.83;;
17528;SDS011;8882;53.192;8.184;2023-07-31T16:40:06;4.07;;;3.30;;
17528;SDS011;8882;53.192;8.184;2023-07-31T16:42:33;8.23;;;3.97;;
17528;SDS011;8882;53.192;8.184;2023-07-31T16:44:58;5.87;;;3.67;;
17528;SDS011;8882;53.192;8.184;2023-07-31T16:47:24;4.17;;;3.50;;
17528;SDS011;8882;53.192;8.184;2023-07-31T16:49:50;6.50;;;3.90;;
17528;SDS011;8882;53.192;8.184;2023-07-31T16:52:15;6.23;;;3.80;;
17528;SDS011;8882;53.192;8.184;2023-07-31T16:54:41;4.33;;;3.57;;
17528;SDS011;8882;53.192;8.184;2023-07-31T16:57:06;4.20;;;3.27;;
17528;SDS011;8882;53.192;8.184;2023-07-31T16:59:32;3.37;;;3.07;;
17528;SDS011;8882;53.192;8.184;2023-07-31T17:01:57;4.73;;;3.13;;
17528;SDS011;8882;53.192;8.184;2023-07-31T17:04:23;5.43;;;3.53;;
17528;SDS011;8882;53.192;8.184;2023-07-31T17:06:48;4.53;;;3.70;;
17528;SDS011;8882;53.192;8.184;2023-07-31T17:09:14;4.17;;;3.30;;
17528;SDS011;8882;53.192;8.184;2023-07-31T17:11:39;6.20;;;3.37;;
17528;SDS011;8882;53.192;8.184;2023-07-31T17:14:05;5.47;;;3.50;;
17528;SDS011;8882;53.192;8.184;2023-07-31T17:16:36;4.20;;;3.77;;
17528;SDS011;8882;53.192;8.184;2023-07-31T17:19:02;5.90;;;3.87;;
17528;SDS011;8882;53.192;8.184;2023-07-31T17:21:28;4.70;;;4.20;;
17528;SDS011;8882;53.192;8.184;2023-07-31T17:23:54;7.63;;;4.27;;
17528;SDS011;8882;53.192;8.184;2023-07-31T17:26:20;4.30;;;3.90;;
17528;SDS011;8882;53.192;8.184;2023-07-31T17:28:46;6.20;;;4.50;;
17528;SDS011;8882;53.192;8.184;2023-07-31T17:31:12;5.87;;;4.20;;
17528;SDS011;8882;53.192;8.184;2023-07-31T17:33:38;7.83;;;5.13;;
17528;SDS011;8882;53.192;8.184;2023-07-31T17:36:03;8.07;;;5.30;;
17528;SDS011;8882;53.192;8.184;2023-07-31T17:38:29;5.70;;;5.07;;
17528;SDS011;8882;53.192;8.184;2023-07-31T17:40:55;6.53;;;4.70;;
17528;SDS011;8882;53.192;8.184;2023-07-31T17:43:20;7.53;;;5.13;;
17528;SDS011;8882;53.192;8.184;2023-07-31T17:45:45;7.90;;;4.83;;
17528;SDS011;8882;53.192;8.184;2023-07-31T17:48:11;7.47;;;5.20;;
17528;SDS011;8882;53.192;8.184;2023-07-31T17:50:37;7.27;;;5.27;;
17528;SDS011;8882;53.192;8.184;2023-07-31T17:53:02;6.23;;;5.33;;
17528;SDS011;8882;53.192;8.184;2023-07-31T17:55:28;5.70;;;4.50;;
17528;SDS011;8882;53.192;8.184;2023-07-31T17:57:54;7.00;;;5.43;;
17528;SDS011;8882;53.192;8.184;2023-07-31T18:00:19;6.43;;;5.43;;
17528;SDS011;8882;53.192;8.184;2023-07-31T18:02:47;6.27;;;5.17;;
17528;SDS011;8882;53.192;8.184;2023-07-31T18:05:13;6.93;;;5.37;;
17528;SDS011;8882;53.192;8.184;2023-07-31T18:07:38;6.17;;;4.90;;
17528;SDS011;8882;53.192;8.184;2023-07-31T18:10:04;7.67;;;5.43;;
17528;SDS011;8882;53.192;8.184;2023-07-31T18:12:32;6.40;;;4.73;;
17528;SDS011;8882;53.192;8.184;2023-07-31T18:14:57;5.53;;;4.93;;
17528;SDS011;8882;53.192;8.184;2023-07-31T18:17:23;7.70;;;5.10;;
17528;SDS011;8882;53.192;8.184;2023-07-31T18:19:50;6.33;;;4.77;;
17528;SDS011;8882;53.192;8.184;2023-07-31T18:22:16;6.60;;;4.93;;
17528;SDS011;8882;53.192;8.184;2023-07-31T18:24:42;6.00;;;4.50;;
17528;SDS011;8882;53.192;8.184;2023-07-31T18:27:08;5.13;;;4.63;;
17528;SDS011;8882;53.192;8.184;2023-07-31T18:29:34;5.17;;;4.67;;
17528;SDS011;8882;53.192;8.184;2023-07-31T18:32:00;4.73;;;4.33;;
17528;SDS011;8882;53.192;8.184;2023-07-31T18:34:26;4.67;;;4.23;;
17528;SDS011;8882;53.192;8.184;2023-07-31T18:36:51;7.43;;;4.30;;
17528;SDS011;8882;53.192;8.184;2023-07-31T18:39:17;4.93;;;4.23;;
17528;SDS011;8882;53.192;8.184;2023-07-31T18:41:42;5.30;;;4.27;;
17528;SDS011;8882;53.192;8.184;2023-07-31T18:44:08;3.97;;;3.67;;
17528;SDS011;8882;53.192;8.184;2023-07-31T18:46:33;4.20;;;3.63;;
17528;SDS011;8882;53.192;8.184;2023-07-31T18:48:59;3.80;;;3.17;;
17528;SDS011;8882;53.192;8.184;2023-07-31T18:51:24;4.93;;;3.27;;
17528;SDS011;8882;53.192;8.184;2023-07-31T18:53:50;4.90;;;3.43;;
17528;SDS011;8882;53.192;8.184;2023-07-31T18:56:16;4.23;;;2.53;;
17528;SDS011;8882;53.192;8.184;2023-07-31T18:58:42;3.80;;;2.93;;
17528;SDS011;8882;53.192;8.184;2023-07-31T19:01:07;6.17;;;2.67;;
17528;SDS011;8882;53.192;8.184;2023-07-31T19:03:33;3.93;;;2.10;;
17528;SDS011;8882;53.192;8.184;2023-07-31T19:06:02;3.20;;;2.40;;
17528;SDS011;8882;53.192;8.184;2023-07-31T19:08:28;2.23;;;2.07;;
17528;SDS011;8882;53.192;8.184;2023-07-31T19:10:54;2.37;;;1.97;;
17528;SDS011;8882;53.192;8.184;2023-07-31T19:13:20;3.93;;;1.90;;
17528;SDS011;8882;53.192;8.184;2023-07-31T19:15:45;2.57;;;2.10;;
17528;SDS011;8882;53.192;8.184;2023-07-31T19:18:11;2.33;;;1.80;;
17528;SDS011;8882;53.192;8.184;2023-07-31T19:20:36;2.40;;;2.07;;
17528;SDS011;8882;53.192;8.184;2023-07-31T19:23:02;2.47;;;2.10;;
17528;SDS011;8882;53.192;8.184;2023-07-31T19:25:27;6.73;;;2.33;;
17528;SDS011;8882;53.192;8.184;2023-07-31T19:27:53;2.40;;;2.20;;
17528;SDS011;8882;53.192;8.184;2023-07-31T19:30:18;4.30;;;2.57;;
17528;SDS011;8882;53.192;8.184;2023-07-31T19:32:44;3.30;;;2.80;;
17528;SDS011;8882;53.192;8.184;2023-07-31T19:35:11;2.50;;;2.30;;
17528;SDS011;8882;53.192;8.184;2023-07-31T19:37:37;2.60;;;2.40;;
17528;SDS011;8882;53.192;8.184;2023-07-31T19:40:03;2.23;;;2.03;;
17528;SDS011;8882;53.192;8.184;2023-07-31T19:42:29;3.47;;;1.87;;
17528;SDS011;8882;53.192;8.184;2023-07-31T19:44:57;1.83;;;1.40;;